EZY44PM DTNH-EGPH
Flight info
| Callsign | EZY44PM |
|---|---|
| Flight time | N/A |
| Altitude | 36000 |
| Route | VAXAL1D VAXAL UM734 SIRVI UG727 NIBEL DCT BELOK DCT ROMPO DCT ERTEV DCT PUNSA DCT DEVDI/N0450F380 DCT SUTAL N852 VELED DCT MIMVA L602 EMLON M79 TENDO DCT AGPED |
| Aircraft | A320/M-SDE3FGHIRWY/LB1 |
Departure
| Time | 2026-04-18 19:55 |
|---|---|
| Airport | Enfidha - Hammamet International Airport (DTNH) |
Arrival
| Time | N/A |
|---|---|
| Airport | Edinburgh Airport (EGPH) |
| Time | Latitude | Longitude | Altitude | Speed | Heading |
|---|---|---|---|---|---|
| 2026-04-18 19:18 | 36.07961 | 10.44161 | 24 ft | 0 kts | 181° |
| 2026-04-18 19:22 | 36.07962 | 10.44161 | 24 ft | 0 kts | 181° |
| 2026-04-18 19:42 | 36.07969 | 10.44161 | 24 ft | 4 kts | 181° |
| 2026-04-18 19:42 | 36.07996 | 10.44163 | 26 ft | 4 kts | 187° |
| 2026-04-18 19:43 | 36.08022 | 10.44169 | 28 ft | 4 kts | 203° |
| 2026-04-18 19:43 | 36.08041 | 10.44187 | 25 ft | 3 kts | 263° |
| 2026-04-18 19:43 | 36.08042 | 10.44192 | 29 ft | 0 kts | 270° |
| 2026-04-18 19:46 | 36.08041 | 10.44150 | 26 ft | 7 kts | 269° |
| 2026-04-18 19:47 | 36.08031 | 10.44086 | 25 ft | 8 kts | 227° |
| 2026-04-18 19:47 | 36.08016 | 10.44022 | 27 ft | 9 kts | 260° |
| 2026-04-18 19:47 | 36.07985 | 10.43956 | 25 ft | 10 kts | 220° |
| 2026-04-18 19:47 | 36.07928 | 10.43930 | 25 ft | 8 kts | 186° |
| 2026-04-18 19:48 | 36.07876 | 10.43926 | 25 ft | 7 kts | 181° |
| 2026-04-18 19:48 | 36.07833 | 10.43926 | 25 ft | 6 kts | 179° |
| 2026-04-18 19:48 | 36.07787 | 10.43935 | 27 ft | 6 kts | 158° |
| 2026-04-18 19:48 | 36.07759 | 10.43967 | 27 ft | 5 kts | 123° |
| 2026-04-18 19:49 | 36.07743 | 10.44020 | 25 ft | 9 kts | 97° |
| 2026-04-18 19:49 | 36.07745 | 10.44092 | 25 ft | 8 kts | 88° |
| 2026-04-18 19:49 | 36.07747 | 10.44154 | 25 ft | 7 kts | 88° |
| 2026-04-18 19:49 | 36.07748 | 10.44207 | 25 ft | 6 kts | 88° |
| 2026-04-18 19:50 | 36.07750 | 10.44290 | 24 ft | 10 kts | 88° |
| 2026-04-18 19:50 | 36.07751 | 10.44370 | 24 ft | 9 kts | 91° |
| 2026-04-18 19:50 | 36.07750 | 10.44445 | 24 ft | 10 kts | 91° |
| 2026-04-18 19:50 | 36.07748 | 10.44523 | 24 ft | 9 kts | 91° |
| 2026-04-18 19:51 | 36.07747 | 10.44593 | 24 ft | 8 kts | 91° |
| 2026-04-18 19:51 | 36.07745 | 10.44693 | 24 ft | 16 kts | 91° |
| 2026-04-18 19:51 | 36.07746 | 10.44732 | 24 ft | 0 kts | 88° |
| 2026-04-18 19:52 | 36.07747 | 10.44757 | 23 ft | 4 kts | 88° |
| 2026-04-18 19:52 | 36.07747 | 10.44785 | 23 ft | 3 kts | 88° |
| 2026-04-18 19:52 | 36.07741 | 10.44825 | 25 ft | 4 kts | 121° |
| 2026-04-18 19:52 | 36.07721 | 10.44847 | 23 ft | 3 kts | 146° |
| 2026-04-18 19:53 | 36.07693 | 10.44856 | 23 ft | 5 kts | 177° |
| 2026-04-18 19:53 | 36.07662 | 10.44847 | 23 ft | 4 kts | 201° |
| 2026-04-18 19:53 | 36.07601 | 10.44819 | 24 ft | 5 kts | 207° |
| 2026-04-18 19:54 | 36.07581 | 10.44796 | 25 ft | 6 kts | 231° |
| 2026-04-18 19:54 | 36.07572 | 10.44744 | 24 ft | 7 kts | 267° |
| 2026-04-18 19:54 | 36.07572 | 10.44552 | 24 ft | 58 kts | 269° |
| 2026-04-18 19:54 | 36.07579 | 10.43697 | 26 ft | 137 kts | 271° |
| 2026-04-18 19:55 | 36.07640 | 10.42420 | 702 ft | 141 kts | 287° |
| 2026-04-18 19:55 | 36.07904 | 10.41312 | 1727 ft | 134 kts | 279° |
| 2026-04-18 19:55 | 36.07697 | 10.40136 | 2385 ft | 161 kts | 250° |
| 2026-04-18 19:55 | 36.07277 | 10.38712 | 2663 ft | 186 kts | 265° |
| 2026-04-18 19:56 | 36.07167 | 10.37037 | 2993 ft | 206 kts | 272° |
| 2026-04-18 19:56 | 36.07144 | 10.35166 | 3292 ft | 229 kts | 272° |
| 2026-04-18 19:56 | 36.07112 | 10.33100 | 3676 ft | 253 kts | 266° |
| 2026-04-18 19:56 | 36.06480 | 10.31013 | 4307 ft | 269 kts | 236° |
| 2026-04-18 19:57 | 36.05054 | 10.29489 | 5192 ft | 277 kts | 208° |
| 2026-04-18 19:57 | 36.03307 | 10.28595 | 6088 ft | 280 kts | 201° |
| 2026-04-18 19:57 | 36.01469 | 10.27789 | 6988 ft | 282 kts | 200° |
| 2026-04-18 19:57 | 35.99602 | 10.26989 | 7845 ft | 286 kts | 200° |
| 2026-04-18 19:58 | 35.97708 | 10.26183 | 8672 ft | 290 kts | 200° |
| 2026-04-18 19:58 | 35.95787 | 10.25371 | 9513 ft | 294 kts | 200° |
| 2026-04-18 19:58 | 35.93838 | 10.24551 | 10299 ft | 300 kts | 200° |
| 2026-04-18 19:58 | 35.91781 | 10.23680 | 10577 ft | 324 kts | 200° |
| 2026-04-18 19:59 | 35.89574 | 10.22742 | 10820 ft | 348 kts | 200° |
| 2026-04-18 19:59 | 35.87234 | 10.21744 | 11257 ft | 361 kts | 200° |
| 2026-04-18 19:59 | 35.84838 | 10.20717 | 11918 ft | 367 kts | 200° |
| 2026-04-18 19:59 | 35.82410 | 10.19674 | 12636 ft | 372 kts | 200° |
| 2026-04-18 20:00 | 35.79951 | 10.18615 | 13340 ft | 377 kts | 200° |
| 2026-04-18 20:00 | 35.77454 | 10.17535 | 14034 ft | 382 kts | 200° |
| 2026-04-18 20:00 | 35.74932 | 10.16442 | 14667 ft | 386 kts | 200° |
| 2026-04-18 20:00 | 35.72386 | 10.15343 | 15307 ft | 390 kts | 200° |
| 2026-04-18 20:01 | 35.69817 | 10.14238 | 15956 ft | 393 kts | 200° |
| 2026-04-18 20:01 | 35.67229 | 10.13130 | 16594 ft | 396 kts | 200° |
| 2026-04-18 20:01 | 35.64612 | 10.12015 | 17222 ft | 399 kts | 200° |
| 2026-04-18 20:01 | 35.61974 | 10.10896 | 17849 ft | 403 kts | 200° |
| 2026-04-18 20:02 | 35.59317 | 10.09771 | 18450 ft | 406 kts | 200° |
| 2026-04-18 20:02 | 35.56636 | 10.08640 | 18959 ft | 409 kts | 200° |
| 2026-04-18 20:02 | 35.53932 | 10.07504 | 19472 ft | 412 kts | 200° |
| 2026-04-18 20:02 | 35.51205 | 10.06361 | 19991 ft | 415 kts | 200° |
| 2026-04-18 20:03 | 35.50962 | 10.06259 | 20041 ft | 416 kts | 200° |
| 2026-04-18 20:03 | 35.49312 | 10.05567 | 20346 ft | 417 kts | 200° |
| 2026-04-18 20:03 | 35.46551 | 10.04409 | 20849 ft | 421 kts | 200° |
| 2026-04-18 20:03 | 35.43769 | 10.03245 | 21343 ft | 424 kts | 200° |
| 2026-04-18 20:04 | 35.40972 | 10.02075 | 21825 ft | 427 kts | 200° |
| 2026-04-18 20:04 | 35.38149 | 10.00898 | 22306 ft | 430 kts | 200° |
| 2026-04-18 20:04 | 35.35416 | 9.99422 | 22750 ft | 430 kts | 214° |
| 2026-04-18 20:04 | 35.33102 | 9.97116 | 23192 ft | 429 kts | 230° |
| 2026-04-18 20:05 | 35.31412 | 9.94130 | 23652 ft | 427 kts | 246° |
| 2026-04-18 20:05 | 35.30489 | 9.90705 | 24037 ft | 424 kts | 263° |
| 2026-04-18 20:05 | 35.30381 | 9.87116 | 24420 ft | 422 kts | 279° |
| 2026-04-18 20:05 | 35.31063 | 9.83651 | 24800 ft | 420 kts | 294° |
| 2026-04-18 20:06 | 35.32492 | 9.80546 | 25191 ft | 418 kts | 309° |
| 2026-04-18 20:06 | 35.34544 | 9.78049 | 25583 ft | 418 kts | 324° |
| 2026-04-18 20:06 | 35.37083 | 9.76322 | 25963 ft | 419 kts | 340° |
| 2026-04-18 20:06 | 35.39916 | 9.75511 | 26343 ft | 422 kts | 355° |
| 2026-04-18 20:07 | 35.42856 | 9.75648 | 26722 ft | 425 kts | 5° |
| 2026-04-18 20:07 | 35.45793 | 9.76076 | 27088 ft | 427 kts | 5° |
| 2026-04-18 20:07 | 35.48751 | 9.76509 | 27472 ft | 429 kts | 5° |
| 2026-04-18 20:07 | 35.51721 | 9.76944 | 27832 ft | 430 kts | 5° |
| 2026-04-18 20:08 | 35.54700 | 9.77377 | 28184 ft | 432 kts | 5° |
| 2026-04-18 20:08 | 35.57698 | 9.77810 | 28530 ft | 434 kts | 5° |
| 2026-04-18 20:08 | 35.60700 | 9.78246 | 28874 ft | 436 kts | 5° |
| 2026-04-18 20:08 | 35.63719 | 9.78684 | 29207 ft | 438 kts | 5° |
| 2026-04-18 20:09 | 35.66745 | 9.79121 | 29580 ft | 438 kts | 5° |
| 2026-04-18 20:09 | 35.69769 | 9.79559 | 30074 ft | 436 kts | 5° |
| 2026-04-18 20:09 | 35.72776 | 9.79995 | 30512 ft | 435 kts | 5° |
| 2026-04-18 20:09 | 35.75780 | 9.80433 | 30932 ft | 433 kts | 5° |
| 2026-04-18 20:10 | 35.78761 | 9.80872 | 31340 ft | 431 kts | 5° |
| 2026-04-18 20:10 | 35.81641 | 9.81297 | 31732 ft | 430 kts | 5° |
| 2026-04-18 20:10 | 35.84605 | 9.81734 | 32122 ft | 429 kts | 5° |
| 2026-04-18 20:10 | 35.87557 | 9.82169 | 32524 ft | 427 kts | 5° |
| 2026-04-18 20:11 | 35.90499 | 9.82601 | 32925 ft | 426 kts | 5° |
| 2026-04-18 20:11 | 35.93403 | 9.83024 | 33319 ft | 424 kts | 5° |
| 2026-04-18 20:11 | 35.96297 | 9.83444 | 33705 ft | 423 kts | 5° |
| 2026-04-18 20:11 | 35.98931 | 9.83826 | 34053 ft | 422 kts | 4° |
| 2026-04-18 20:12 | 36.01842 | 9.84252 | 34396 ft | 421 kts | 4° |
| 2026-04-18 20:12 | 36.04750 | 9.84680 | 34714 ft | 420 kts | 4° |
| 2026-04-18 20:12 | 36.07652 | 9.85110 | 35017 ft | 420 kts | 4° |
| 2026-04-18 20:12 | 36.10559 | 9.85541 | 35303 ft | 420 kts | 4° |
| 2026-04-18 20:13 | 36.13457 | 9.85971 | 35593 ft | 420 kts | 4° |
| 2026-04-18 20:13 | 36.16365 | 9.86401 | 35873 ft | 420 kts | 4° |
| 2026-04-18 20:13 | 36.19268 | 9.86827 | 36101 ft | 422 kts | 4° |
| 2026-04-18 20:13 | 36.22202 | 9.87256 | 36159 ft | 427 kts | 4° |
| 2026-04-18 20:14 | 36.28182 | 9.88133 | 36163 ft | 439 kts | 5° |
| 2026-04-18 20:14 | 36.34330 | 9.89044 | 36165 ft | 451 kts | 5° |
| 2026-04-18 20:15 | 36.37445 | 9.89469 | 36629 ft | 440 kts | 2° |
| 2026-04-18 20:15 | 36.40278 | 9.89407 | 39055 ft | 366 kts | 341° |
| 2026-04-18 20:15 | 36.42256 | 9.88150 | 41622 ft | 292 kts | 314° |
| 2026-04-18 20:15 | 36.43303 | 9.86539 | 42149 ft | 286 kts | 296° |
| 2026-04-18 20:16 | 36.43494 | 9.86074 | 41923 ft | 293 kts | 292° |
| 2026-04-18 20:17 | 36.43907 | 9.83349 | 39534 ft | 366 kts | 265° |
| 2026-04-18 20:17 | 36.42847 | 9.80097 | 37170 ft | 453 kts | 230° |
| 2026-04-18 20:17 | 36.40235 | 9.78030 | 38181 ft | 418 kts | 206° |
| 2026-04-18 20:17 | 36.38045 | 9.76418 | 41023 ft | 327 kts | 231° |
| 2026-04-18 20:18 | 36.36492 | 9.74566 | 42098 ft | 310 kts | 217° |
| 2026-04-18 20:18 | 36.34507 | 9.73123 | 40525 ft | 357 kts | 219° |
| 2026-04-18 20:18 | 36.32695 | 9.70725 | 37962 ft | 417 kts | 250° |
| 2026-04-18 20:18 | 36.32089 | 9.67182 | 36918 ft | 420 kts | 272° |
| 2026-04-18 20:19 | 36.32129 | 9.63518 | 36036 ft | 428 kts | 282° |
| 2026-04-18 20:19 | 36.33057 | 9.60116 | 35971 ft | 415 kts | 304° |
| 2026-04-18 20:19 | 36.34952 | 9.57474 | 35967 ft | 413 kts | 326° |
| 2026-04-18 20:19 | 36.37526 | 9.55953 | 35971 ft | 414 kts | 347° |
| 2026-04-18 20:20 | 36.40404 | 9.55787 | 35972 ft | 419 kts | 8° |
| 2026-04-18 20:20 | 36.43168 | 9.57000 | 35969 ft | 427 kts | 25° |
| 2026-04-18 20:20 | 36.48361 | 9.60603 | 35963 ft | 427 kts | 26° |
| 2026-04-18 20:21 | 36.53655 | 9.63869 | 35965 ft | 421 kts | 12° |
| 2026-04-18 20:21 | 36.59390 | 9.65228 | 35964 ft | 420 kts | 8° |
| 2026-04-18 20:22 | 36.65136 | 9.66667 | 35964 ft | 421 kts | 9° |
| 2026-04-18 20:22 | 36.70870 | 9.68126 | 35959 ft | 421 kts | 9° |
| 2026-04-18 20:23 | 36.76612 | 9.69540 | 35960 ft | 421 kts | 8° |
| 2026-04-18 20:23 | 36.82362 | 9.70930 | 35961 ft | 421 kts | 8° |
| 2026-04-18 20:24 | 36.88125 | 9.72345 | 35957 ft | 422 kts | 9° |
| 2026-04-18 20:24 | 36.93884 | 9.73766 | 35952 ft | 422 kts | 9° |
| 2026-04-18 20:25 | 36.95917 | 9.74267 | 35951 ft | 422 kts | 9° |
| 2026-04-18 20:25 | 37.01074 | 9.75534 | 35944 ft | 423 kts | 9° |
| 2026-04-18 20:26 | 37.06848 | 9.76958 | 35939 ft | 423 kts | 9° |
| 2026-04-18 20:26 | 37.12627 | 9.78386 | 35931 ft | 423 kts | 9° |
| 2026-04-18 20:27 | 37.18400 | 9.79812 | 35932 ft | 423 kts | 9° |
| 2026-04-18 20:27 | 37.24190 | 9.81245 | 35932 ft | 424 kts | 9° |
| 2026-04-18 20:28 | 37.29969 | 9.82674 | 35930 ft | 424 kts | 9° |
| 2026-04-18 20:28 | 37.35716 | 9.84094 | 35932 ft | 424 kts | 9° |
| 2026-04-18 20:29 | 37.41500 | 9.85537 | 35934 ft | 424 kts | 9° |
| 2026-04-18 20:29 | 37.47291 | 9.86988 | 35937 ft | 424 kts | 9° |
| 2026-04-18 20:30 | 37.53082 | 9.88428 | 35939 ft | 424 kts | 9° |
| 2026-04-18 20:30 | 37.58875 | 9.89875 | 35936 ft | 425 kts | 9° |
| 2026-04-18 20:31 | 37.64672 | 9.91331 | 35940 ft | 425 kts | 9° |
| 2026-04-18 20:31 | 37.70465 | 9.92784 | 35943 ft | 425 kts | 9° |
| 2026-04-18 20:32 | 37.76264 | 9.94238 | 35943 ft | 425 kts | 9° |
| 2026-04-18 20:32 | 37.82072 | 9.95701 | 35938 ft | 425 kts | 9° |
| 2026-04-18 20:33 | 37.87864 | 9.97157 | 35936 ft | 425 kts | 9° |
| 2026-04-18 20:33 | 37.93673 | 9.98626 | 35933 ft | 427 kts | 9° |
| 2026-04-18 20:34 | 37.99542 | 10.00107 | 35928 ft | 431 kts | 9° |
| 2026-04-18 20:34 | 38.05429 | 10.01593 | 35927 ft | 431 kts | 10° |
| 2026-04-18 20:35 | 38.11318 | 10.03098 | 35927 ft | 431 kts | 10° |
| 2026-04-18 20:35 | 38.17202 | 10.04596 | 35934 ft | 431 kts | 9° |
| 2026-04-18 20:36 | 38.23094 | 10.06078 | 35933 ft | 431 kts | 9° |
| 2026-04-18 20:36 | 38.28972 | 10.07577 | 35929 ft | 431 kts | 10° |
| 2026-04-18 20:37 | 38.34854 | 10.09085 | 35926 ft | 431 kts | 10° |
| 2026-04-18 20:37 | 38.40743 | 10.10585 | 35925 ft | 431 kts | 10° |
| 2026-04-18 20:38 | 38.46626 | 10.12082 | 35930 ft | 432 kts | 10° |
| 2026-04-18 20:38 | 38.52517 | 10.13594 | 35920 ft | 432 kts | 10° |
| 2026-04-18 20:39 | 38.58409 | 10.15117 | 35921 ft | 432 kts | 10° |
| 2026-04-18 20:39 | 38.63298 | 10.16384 | 35926 ft | 432 kts | 10° |
| 2026-04-18 20:40 | 38.69195 | 10.17902 | 35918 ft | 432 kts | 10° |
| 2026-04-18 20:40 | 38.74996 | 10.19393 | 35921 ft | 432 kts | 10° |
| 2026-04-18 20:41 | 38.80890 | 10.20917 | 35921 ft | 432 kts | 10° |
| 2026-04-18 20:41 | 38.86786 | 10.22453 | 35922 ft | 432 kts | 10° |
| 2026-04-18 20:42 | 38.92684 | 10.23983 | 35921 ft | 433 kts | 10° |
| 2026-04-18 20:42 | 38.98583 | 10.25510 | 35923 ft | 433 kts | 10° |
| 2026-04-18 20:43 | 39.04486 | 10.27047 | 35924 ft | 433 kts | 10° |
| 2026-04-18 20:43 | 39.10394 | 10.28584 | 35920 ft | 433 kts | 10° |
| 2026-04-18 20:44 | 39.16297 | 10.30130 | 35921 ft | 433 kts | 10° |
| 2026-04-18 20:44 | 39.22199 | 10.31674 | 35918 ft | 433 kts | 10° |
| 2026-04-18 20:45 | 39.28099 | 10.33232 | 35920 ft | 433 kts | 10° |
| 2026-04-18 20:45 | 39.34010 | 10.34786 | 35917 ft | 433 kts | 10° |
| 2026-04-18 20:46 | 39.39981 | 10.35355 | 35920 ft | 431 kts | 354° |
| 2026-04-18 20:46 | 39.45840 | 10.33762 | 35920 ft | 431 kts | 345° |
| 2026-04-18 20:47 | 39.51644 | 10.31805 | 35919 ft | 431 kts | 345° |
| 2026-04-18 20:47 | 39.57459 | 10.29856 | 35923 ft | 431 kts | 345° |
| 2026-04-18 20:48 | 39.63270 | 10.27891 | 35923 ft | 431 kts | 345° |
| 2026-04-18 20:48 | 39.69073 | 10.25914 | 35919 ft | 432 kts | 345° |
| 2026-04-18 20:49 | 39.74884 | 10.23940 | 35922 ft | 432 kts | 345° |
| 2026-04-18 20:49 | 39.80716 | 10.21964 | 35920 ft | 437 kts | 345° |
| 2026-04-18 20:50 | 39.86582 | 10.19965 | 35925 ft | 439 kts | 345° |
| 2026-04-18 20:50 | 39.92493 | 10.17940 | 35920 ft | 440 kts | 345° |
| 2026-04-18 20:51 | 39.98414 | 10.15915 | 35921 ft | 440 kts | 345° |
| 2026-04-18 20:51 | 40.04336 | 10.13888 | 35921 ft | 440 kts | 345° |
| 2026-04-18 20:52 | 40.10255 | 10.11853 | 35921 ft | 440 kts | 345° |
| 2026-04-18 20:52 | 40.16181 | 10.09815 | 35922 ft | 440 kts | 345° |
| 2026-04-18 20:53 | 40.22099 | 10.07781 | 35923 ft | 440 kts | 345° |
| 2026-04-18 20:53 | 40.28025 | 10.05730 | 35919 ft | 440 kts | 345° |
| 2026-04-18 20:54 | 40.33953 | 10.03680 | 35919 ft | 440 kts | 345° |
| 2026-04-18 20:54 | 40.39878 | 10.01636 | 35917 ft | 441 kts | 344° |
| 2026-04-18 20:55 | 40.45802 | 9.99573 | 35920 ft | 441 kts | 344° |
| 2026-04-18 20:55 | 40.51713 | 9.97510 | 35920 ft | 441 kts | 344° |
| 2026-04-18 20:56 | 40.57642 | 9.95455 | 35916 ft | 441 kts | 344° |
| 2026-04-18 20:56 | 40.63579 | 9.93386 | 35916 ft | 441 kts | 344° |
| 2026-04-18 20:57 | 40.69510 | 9.91313 | 35917 ft | 442 kts | 344° |
| 2026-04-18 20:57 | 40.75455 | 9.89227 | 35918 ft | 441 kts | 344° |
| 2026-04-18 20:58 | 40.81386 | 9.87147 | 35921 ft | 442 kts | 344° |
| 2026-04-18 20:58 | 40.87298 | 9.85063 | 35921 ft | 442 kts | 344° |
| 2026-04-18 20:59 | 40.93273 | 9.82956 | 35922 ft | 442 kts | 344° |
| 2026-04-18 20:59 | 40.99217 | 9.80863 | 35924 ft | 442 kts | 344° |
| 2026-04-18 21:00 | 41.05126 | 9.78773 | 35926 ft | 442 kts | 344° |
| 2026-04-18 21:00 | 41.11062 | 9.76678 | 35911 ft | 442 kts | 344° |
| 2026-04-18 21:01 | 41.17041 | 9.74778 | 35916 ft | 442 kts | 346° |
| 2026-04-18 21:01 | 41.23048 | 9.73005 | 35922 ft | 442 kts | 346° |
| 2026-04-18 21:02 | 41.32048 | 9.70279 | 35914 ft | 442 kts | 345° |
| 2026-04-18 21:03 | 41.38044 | 9.68418 | 35911 ft | 442 kts | 345° |
| 2026-04-18 21:03 | 41.44036 | 9.66557 | 35914 ft | 442 kts | 345° |
| 2026-04-18 21:04 | 41.50038 | 9.64692 | 35914 ft | 442 kts | 345° |
| 2026-04-18 21:04 | 41.56038 | 9.62818 | 35911 ft | 443 kts | 345° |
| 2026-04-18 21:05 | 41.62031 | 9.60953 | 35913 ft | 443 kts | 345° |
| 2026-04-18 21:05 | 41.68028 | 9.59080 | 35914 ft | 443 kts | 345° |
| 2026-04-18 21:06 | 41.74039 | 9.57197 | 35911 ft | 443 kts | 345° |
| 2026-04-18 21:06 | 41.80032 | 9.55320 | 35910 ft | 443 kts | 345° |
| 2026-04-18 21:07 | 41.86039 | 9.53424 | 35911 ft | 443 kts | 345° |
| 2026-04-18 21:07 | 41.92038 | 9.51521 | 35908 ft | 443 kts | 345° |
| 2026-04-18 21:08 | 41.98045 | 9.49631 | 35912 ft | 443 kts | 345° |
| 2026-04-18 21:08 | 42.04043 | 9.47746 | 35907 ft | 443 kts | 345° |
| 2026-04-18 21:09 | 42.10048 | 9.45844 | 35910 ft | 443 kts | 345° |
| 2026-04-18 21:09 | 42.16054 | 9.43937 | 35912 ft | 443 kts | 345° |
| 2026-04-18 21:10 | 42.22067 | 9.42028 | 35907 ft | 443 kts | 345° |
| 2026-04-18 21:10 | 42.28064 | 9.40113 | 35906 ft | 443 kts | 345° |
| 2026-04-18 21:11 | 42.34033 | 9.38203 | 35904 ft | 443 kts | 345° |
| 2026-04-18 21:11 | 42.40041 | 9.36282 | 35905 ft | 443 kts | 345° |
| 2026-04-18 21:12 | 42.46044 | 9.34358 | 35902 ft | 443 kts | 345° |
| 2026-04-18 21:12 | 42.52044 | 9.32436 | 35904 ft | 443 kts | 345° |
| 2026-04-18 21:13 | 42.58041 | 9.30517 | 35904 ft | 443 kts | 345° |
| 2026-04-18 21:13 | 42.64043 | 9.28582 | 35906 ft | 443 kts | 344° |
| 2026-04-18 21:14 | 42.70044 | 9.26634 | 35909 ft | 443 kts | 344° |
| 2026-04-18 21:14 | 42.76037 | 9.24693 | 35909 ft | 443 kts | 344° |
| 2026-04-18 21:15 | 42.82043 | 9.22748 | 35918 ft | 443 kts | 344° |
| 2026-04-18 21:15 | 42.88046 | 9.20796 | 35915 ft | 443 kts | 344° |
| 2026-04-18 21:16 | 42.94043 | 9.18848 | 35916 ft | 444 kts | 344° |
| 2026-04-18 21:16 | 43.00061 | 9.16885 | 35922 ft | 444 kts | 344° |
| 2026-04-18 21:17 | 43.06069 | 9.14930 | 35920 ft | 444 kts | 344° |
| 2026-04-18 21:17 | 43.12081 | 9.12963 | 35921 ft | 444 kts | 344° |
| 2026-04-18 21:18 | 43.18098 | 9.10982 | 35921 ft | 445 kts | 344° |
| 2026-04-18 21:18 | 43.24116 | 9.09005 | 35918 ft | 445 kts | 344° |
| 2026-04-18 21:19 | 43.30135 | 9.07029 | 35916 ft | 445 kts | 344° |
| 2026-04-18 21:19 | 43.36158 | 9.05042 | 35917 ft | 445 kts | 344° |
| 2026-04-18 21:20 | 43.42182 | 9.03036 | 35916 ft | 445 kts | 344° |
| 2026-04-18 21:20 | 43.48207 | 9.01037 | 35913 ft | 446 kts | 344° |
| 2026-04-18 21:21 | 43.54245 | 8.99034 | 35912 ft | 446 kts | 343° |
| 2026-04-18 21:21 | 43.59883 | 8.97153 | 35915 ft | 446 kts | 343° |
| 2026-04-18 21:22 | 43.65913 | 8.95128 | 35911 ft | 446 kts | 343° |
| 2026-04-18 21:22 | 43.70902 | 8.93325 | 35906 ft | 446 kts | 342° |
| 2026-04-18 21:23 | 43.77856 | 8.90709 | 35918 ft | 446 kts | 342° |
| 2026-04-18 21:23 | 43.82869 | 8.88837 | 35912 ft | 446 kts | 342° |
| 2026-04-18 21:24 | 43.88861 | 8.86625 | 35906 ft | 446 kts | 342° |
| 2026-04-18 21:24 | 43.94863 | 8.84421 | 35910 ft | 446 kts | 342° |
| 2026-04-18 21:24 | 43.97828 | 8.83333 | 35899 ft | 432 kts | 342° |
| 2026-04-18 21:25 | 44.00712 | 8.82275 | 35906 ft | 429 kts | 342° |
| 2026-04-18 21:25 | 44.06561 | 8.80101 | 35911 ft | 442 kts | 342° |
| 2026-04-18 21:26 | 44.12438 | 8.77907 | 35914 ft | 446 kts | 342° |
| 2026-04-18 21:26 | 44.18439 | 8.75674 | 35901 ft | 447 kts | 342° |
| 2026-04-18 21:27 | 44.24412 | 8.73446 | 35903 ft | 447 kts | 342° |
| 2026-04-18 21:27 | 44.30457 | 8.71185 | 35903 ft | 447 kts | 341° |
| 2026-04-18 21:28 | 44.36425 | 8.68950 | 35904 ft | 447 kts | 341° |
| 2026-04-18 21:28 | 44.42433 | 8.66692 | 35905 ft | 447 kts | 341° |
| 2026-04-18 21:29 | 44.48445 | 8.64428 | 35907 ft | 447 kts | 341° |
| 2026-04-18 21:29 | 44.54448 | 8.62163 | 35906 ft | 447 kts | 341° |
| 2026-04-18 21:30 | 44.60450 | 8.59888 | 35905 ft | 447 kts | 341° |
| 2026-04-18 21:30 | 44.66462 | 8.57605 | 35901 ft | 447 kts | 341° |
| 2026-04-18 21:31 | 44.72460 | 8.55329 | 35898 ft | 447 kts | 341° |
| 2026-04-18 21:31 | 44.78476 | 8.53044 | 35894 ft | 447 kts | 341° |
| 2026-04-18 21:32 | 44.84485 | 8.50757 | 35892 ft | 447 kts | 341° |
| 2026-04-18 21:32 | 44.90491 | 8.48460 | 35891 ft | 447 kts | 341° |
| 2026-04-18 21:33 | 44.96261 | 8.46263 | 35891 ft | 447 kts | 341° |
| 2026-04-18 21:33 | 45.02272 | 8.43955 | 35886 ft | 447 kts | 341° |
| 2026-04-18 21:34 | 45.08279 | 8.41637 | 35884 ft | 447 kts | 341° |
| 2026-04-18 21:34 | 45.14288 | 8.39322 | 35881 ft | 447 kts | 341° |
| 2026-04-18 21:35 | 45.20284 | 8.37008 | 35879 ft | 447 kts | 340° |
| 2026-04-18 21:35 | 45.26290 | 8.34682 | 35881 ft | 447 kts | 340° |
| 2026-04-18 21:36 | 45.32291 | 8.32349 | 35878 ft | 447 kts | 340° |
| 2026-04-18 21:36 | 45.38286 | 8.30010 | 35882 ft | 447 kts | 340° |
| 2026-04-18 21:37 | 45.44283 | 8.27678 | 35883 ft | 447 kts | 340° |
| 2026-04-18 21:37 | 45.50285 | 8.25341 | 35887 ft | 447 kts | 340° |
| 2026-04-18 21:38 | 45.56271 | 8.23006 | 35892 ft | 447 kts | 340° |
| 2026-04-18 21:38 | 45.62269 | 8.20657 | 35901 ft | 447 kts | 340° |
| 2026-04-18 21:39 | 45.68270 | 8.18286 | 35912 ft | 447 kts | 340° |
| 2026-04-18 21:39 | 45.74259 | 8.15929 | 35918 ft | 446 kts | 340° |
| 2026-04-18 21:40 | 45.80255 | 8.13563 | 35927 ft | 447 kts | 340° |
| 2026-04-18 21:40 | 45.86249 | 8.11191 | 35935 ft | 447 kts | 340° |
| 2026-04-18 21:41 | 45.92216 | 8.08821 | 35941 ft | 446 kts | 340° |
| 2026-04-18 21:41 | 45.98198 | 8.06440 | 35956 ft | 447 kts | 340° |
| 2026-04-18 21:42 | 46.04157 | 8.04064 | 35953 ft | 447 kts | 340° |
| 2026-04-18 21:42 | 46.10206 | 8.01749 | 35957 ft | 448 kts | 342° |
| 2026-04-18 21:43 | 46.16350 | 7.99981 | 35958 ft | 450 kts | 345° |
| 2026-04-18 21:43 | 46.22485 | 7.98445 | 35966 ft | 451 kts | 345° |
| 2026-04-18 21:44 | 46.28645 | 7.96804 | 35967 ft | 450 kts | 344° |
| 2026-04-18 21:44 | 46.34800 | 7.95056 | 35971 ft | 451 kts | 344° |
| 2026-04-18 21:45 | 46.40957 | 7.93292 | 35965 ft | 451 kts | 344° |
| 2026-04-18 21:45 | 46.47124 | 7.91537 | 35961 ft | 452 kts | 344° |
| 2026-04-18 21:46 | 46.53351 | 7.89783 | 35961 ft | 453 kts | 344° |
| 2026-04-18 21:46 | 46.59497 | 7.88050 | 35958 ft | 453 kts | 344° |
| 2026-04-18 21:47 | 46.65629 | 7.86305 | 35952 ft | 451 kts | 344° |
| 2026-04-18 21:47 | 46.71849 | 7.84522 | 35956 ft | 453 kts | 344° |
| 2026-04-18 21:48 | 46.78038 | 7.82743 | 35954 ft | 454 kts | 343° |
| 2026-04-18 21:48 | 46.84235 | 7.80959 | 35952 ft | 454 kts | 343° |
| 2026-04-18 21:49 | 46.90432 | 7.79184 | 35948 ft | 455 kts | 343° |
| 2026-04-18 21:49 | 46.94236 | 7.78093 | 35953 ft | 455 kts | 343° |
| 2026-04-18 21:50 | 47.00109 | 7.76407 | 35950 ft | 455 kts | 343° |
| 2026-04-18 21:50 | 47.06360 | 7.74586 | 35944 ft | 455 kts | 343° |
| 2026-04-18 21:51 | 47.12581 | 7.72775 | 35947 ft | 456 kts | 343° |
| 2026-04-18 21:51 | 47.18805 | 7.70971 | 35945 ft | 456 kts | 343° |
| 2026-04-18 21:52 | 47.25037 | 7.69159 | 35948 ft | 456 kts | 343° |
| 2026-04-18 21:52 | 47.31252 | 7.67350 | 35944 ft | 457 kts | 343° |
| 2026-04-18 21:53 | 47.37484 | 7.65518 | 35928 ft | 457 kts | 343° |
| 2026-04-18 21:53 | 47.43705 | 7.63683 | 35932 ft | 457 kts | 343° |
| 2026-04-18 21:54 | 47.49950 | 7.61854 | 35930 ft | 458 kts | 343° |
| 2026-04-18 21:54 | 47.56191 | 7.60029 | 35935 ft | 458 kts | 343° |
| 2026-04-18 21:55 | 47.62494 | 7.58166 | 35927 ft | 458 kts | 343° |
| 2026-04-18 21:55 | 47.68744 | 7.56318 | 35928 ft | 458 kts | 343° |
| 2026-04-18 21:56 | 47.74881 | 7.54114 | 35925 ft | 451 kts | 333° |
| 2026-04-18 21:56 | 47.80628 | 7.50432 | 35923 ft | 449 kts | 331° |
| 2026-04-18 21:57 | 47.86367 | 7.46720 | 35928 ft | 449 kts | 331° |
| 2026-04-18 21:57 | 47.92097 | 7.43014 | 35927 ft | 449 kts | 331° |
| 2026-04-18 21:58 | 47.97823 | 7.39291 | 35930 ft | 449 kts | 331° |
| 2026-04-18 21:58 | 48.03541 | 7.35554 | 35930 ft | 449 kts | 331° |
| 2026-04-18 21:59 | 48.09261 | 7.31814 | 35928 ft | 449 kts | 331° |
| 2026-04-18 21:59 | 48.14979 | 7.28077 | 35931 ft | 449 kts | 331° |
| 2026-04-18 22:00 | 48.20703 | 7.24313 | 35933 ft | 449 kts | 330° |
| 2026-04-18 22:00 | 48.26414 | 7.20542 | 35932 ft | 449 kts | 330° |
| 2026-04-18 22:01 | 48.32102 | 7.16791 | 35938 ft | 449 kts | 330° |
| 2026-04-18 22:01 | 48.37858 | 7.12992 | 35934 ft | 449 kts | 331° |
| 2026-04-18 22:02 | 48.43589 | 7.09194 | 35942 ft | 450 kts | 330° |
| 2026-04-18 22:02 | 48.49305 | 7.05384 | 35936 ft | 450 kts | 330° |
| 2026-04-18 22:03 | 48.54067 | 7.02208 | 35944 ft | 450 kts | 331° |
| 2026-04-18 22:03 | 48.59797 | 6.98388 | 35939 ft | 450 kts | 331° |
| 2026-04-18 22:04 | 48.65515 | 6.94561 | 35930 ft | 450 kts | 331° |
| 2026-04-18 22:04 | 48.71237 | 6.90718 | 35930 ft | 450 kts | 331° |
| 2026-04-18 22:05 | 48.76956 | 6.86870 | 35936 ft | 450 kts | 331° |
| 2026-04-18 22:05 | 48.82671 | 6.83012 | 35932 ft | 450 kts | 331° |
| 2026-04-18 22:06 | 48.88394 | 6.79143 | 35946 ft | 450 kts | 331° |
| 2026-04-18 22:06 | 48.94116 | 6.75260 | 35940 ft | 450 kts | 331° |
| 2026-04-18 22:07 | 48.99832 | 6.71383 | 35943 ft | 450 kts | 331° |
| 2026-04-18 22:07 | 49.05541 | 6.67491 | 35932 ft | 449 kts | 330° |
| 2026-04-18 22:08 | 49.11200 | 6.63614 | 35955 ft | 449 kts | 330° |
| 2026-04-18 22:08 | 49.16904 | 6.59710 | 35937 ft | 449 kts | 331° |
| 2026-04-18 22:09 | 49.22598 | 6.55816 | 35958 ft | 448 kts | 330° |
| 2026-04-18 22:09 | 49.28283 | 6.51904 | 35941 ft | 448 kts | 330° |
| 2026-04-18 22:10 | 49.34005 | 6.47943 | 35940 ft | 448 kts | 330° |
| 2026-04-18 22:10 | 49.39687 | 6.44014 | 35939 ft | 448 kts | 330° |
| 2026-04-18 22:11 | 49.45332 | 6.40113 | 35939 ft | 448 kts | 330° |
| 2026-04-18 22:11 | 49.50807 | 6.36397 | 35934 ft | 449 kts | 331° |
| 2026-04-18 22:12 | 49.59446 | 6.30907 | 35930 ft | 450 kts | 332° |
| 2026-04-18 22:12 | 49.65232 | 6.27211 | 35923 ft | 450 kts | 331° |
| 2026-04-18 22:13 | 49.70950 | 6.23363 | 35931 ft | 449 kts | 330° |
| 2026-04-18 22:13 | 49.76629 | 6.19452 | 35926 ft | 450 kts | 330° |
| 2026-04-18 22:14 | 49.82354 | 6.15538 | 35941 ft | 450 kts | 330° |
| 2026-04-18 22:14 | 49.88114 | 6.11696 | 35942 ft | 452 kts | 332° |
| 2026-04-18 22:15 | 49.94019 | 6.08272 | 35954 ft | 454 kts | 335° |
| 2026-04-18 22:15 | 49.99985 | 6.05024 | 35957 ft | 455 kts | 335° |
| 2026-04-18 22:16 | 50.05939 | 6.01681 | 35963 ft | 454 kts | 334° |
| 2026-04-18 22:16 | 50.11863 | 5.98255 | 35958 ft | 454 kts | 334° |
| 2026-04-18 22:17 | 50.17788 | 5.94815 | 35971 ft | 455 kts | 334° |
| 2026-04-18 22:17 | 50.23714 | 5.91383 | 35968 ft | 455 kts | 334° |
| 2026-04-18 22:18 | 50.29656 | 5.87936 | 35974 ft | 455 kts | 334° |
| 2026-04-18 22:18 | 50.35596 | 5.84482 | 35969 ft | 455 kts | 334° |
| 2026-04-18 22:19 | 50.41534 | 5.81027 | 35984 ft | 456 kts | 334° |
| 2026-04-18 22:19 | 50.47516 | 5.77539 | 35980 ft | 456 kts | 334° |
| 2026-04-18 22:20 | 50.53464 | 5.74049 | 35999 ft | 456 kts | 334° |
| 2026-04-18 22:20 | 50.59384 | 5.70586 | 35992 ft | 457 kts | 335° |
| 2026-04-18 22:21 | 50.65515 | 5.67557 | 36005 ft | 460 kts | 339° |
| 2026-04-18 22:21 | 50.71703 | 5.64914 | 35999 ft | 461 kts | 340° |
| 2026-04-18 22:22 | 50.77919 | 5.62379 | 35986 ft | 461 kts | 340° |
| 2026-04-18 22:22 | 50.84121 | 5.59765 | 35978 ft | 461 kts | 340° |
| 2026-04-18 22:23 | 50.90301 | 5.57086 | 35987 ft | 461 kts | 339° |
| 2026-04-18 22:23 | 50.96488 | 5.54387 | 35979 ft | 461 kts | 339° |
| 2026-04-18 22:24 | 51.02688 | 5.51683 | 35990 ft | 462 kts | 340° |
| 2026-04-18 22:24 | 51.08893 | 5.48990 | 35984 ft | 462 kts | 340° |
| 2026-04-18 22:25 | 51.14750 | 5.46434 | 36000 ft | 462 kts | 340° |
| 2026-04-18 22:25 | 51.21057 | 5.43769 | 35998 ft | 463 kts | 342° |
| 2026-04-18 22:26 | 51.27354 | 5.41615 | 36008 ft | 464 kts | 343° |
| 2026-04-18 22:26 | 51.33638 | 5.39234 | 36003 ft | 463 kts | 340° |
| 2026-04-18 22:27 | 51.38198 | 5.36862 | 36013 ft | 456 kts | 330° |